createdAt,value
2022-08-30T00:58:32.134Z,56.87
2022-08-30T01:15:21.524Z,56.75
2022-08-30T01:18:50.829Z,57.01
2022-08-30T01:36:52.788Z,57.43
2022-08-30T01:39:50.653Z,57.21
2022-08-30T01:42:52.810Z,56.88
2022-08-30T01:45:53.074Z,57.00
2022-08-30T01:54:51.054Z,57.15
2022-08-30T01:57:25.034Z,57.04
2022-08-30T02:05:52.160Z,57.05
2022-08-30T02:08:20.589Z,56.76
2022-08-30T02:10:53.323Z,56.96
2022-08-30T02:13:53.033Z,56.98
2022-08-30T02:23:06.059Z,57.35
2022-08-30T02:32:19.173Z,57.62
2022-08-30T02:34:53.546Z,57.61
2022-08-30T02:37:54.411Z,57.88
2022-08-30T02:40:51.609Z,57.83
2022-08-30T02:49:50.480Z,57.94
2022-08-30T02:52:25.934Z,57.29
2022-08-30T02:54:56.272Z,57.63
2022-08-30T03:08:53.709Z,59.16
2022-08-30T03:11:52.874Z,59.38
2022-08-30T03:14:21.371Z,59.96
2022-08-30T03:16:52.892Z,60.43
2022-08-30T03:19:53.655Z,59.99
2022-08-30T03:22:52.361Z,59.87
2022-08-30T03:25:24.325Z,60.73
2022-08-30T03:27:52.973Z,60.75
2022-08-30T03:40:12.405Z,60.78
2022-08-30T03:42:52.311Z,61.52
2022-08-30T03:45:55.115Z,61.96
2022-08-30T03:48:53.965Z,62.20
2022-08-30T03:58:22.149Z,62.92
2022-08-30T04:00:53.738Z,63.02
2022-08-30T04:06:52.468Z,62.50
2022-08-30T04:09:26.946Z,62.88
2022-08-30T04:11:58.206Z,63.26
2022-08-30T04:18:53.078Z,63.81
2022-08-30T04:24:53.147Z,64.31
2022-08-30T04:30:53.110Z,64.72
2022-08-30T04:40:53.726Z,65.54
2022-08-30T04:46:09.046Z,66.05
2022-08-30T04:48:53.017Z,65.75
2022-08-30T04:51:51.714Z,66.43
2022-08-30T04:57:07.652Z,66.43
2022-08-30T04:59:56.811Z,66.43
2022-08-30T05:05:56.285Z,66.05
2022-08-30T05:11:55.591Z,66.43
2022-08-30T05:17:24.940Z,66.92
2022-08-30T05:23:08.272Z,67.79
2022-08-30T05:25:54.996Z,67.27
2022-08-30T05:28:26.046Z,67.52
2022-08-30T05:30:54.805Z,67.60
2022-08-30T05:36:58.307Z,67.84
2022-08-30T05:39:52.535Z,67.77
2022-08-30T05:42:23.806Z,68.08
2022-08-30T05:44:55.596Z,68.47
2022-08-30T05:50:57.597Z,68.83
2022-08-30T05:53:31.932Z,69.31
2022-08-30T05:56:53.558Z,68.76
2022-08-30T05:59:24.607Z,68.87
2022-08-30T06:01:59.407Z,68.77
2022-08-30T06:04:55.372Z,68.79
2022-08-30T06:07:53.677Z,68.92
2022-08-30T06:10:25.021Z,68.77
2022-08-30T06:12:54.853Z,69.08
2022-08-30T06:15:55.233Z,68.99
2022-08-30T06:18:28.715Z,68.79
2022-08-30T06:21:33.300Z,69.16
2022-08-30T06:24:02.301Z,69.41
2022-08-30T06:29:25.123Z,69.45
2022-08-30T06:32:02.021Z,69.66
2022-08-30T06:34:54.792Z,69.50
2022-08-30T06:43:28.425Z,70.89
2022-08-30T06:45:57.203Z,71.36
2022-08-30T06:48:25.563Z,71.42
2022-08-30T06:50:58.010Z,70.90
2022-08-30T06:56:58.677Z,70.89
2022-08-30T07:02:55.537Z,70.44
2022-08-30T07:05:24.983Z,70.66
2022-08-30T07:13:56.349Z,70.67
2022-08-30T07:16:24.845Z,71.36
2022-08-30T07:18:59.540Z,71.95
2022-08-30T07:21:54.778Z,71.45
2022-08-30T07:27:56.226Z,71.88
2022-08-30T07:34:27.414Z,71.73
2022-08-30T07:37:05.558Z,72.40
2022-08-30T07:40:06.359Z,71.11
2022-08-30T07:42:57.259Z,72.18
2022-08-30T07:49:45.500Z,72.19
2022-08-30T07:52:59.998Z,72.70
2022-08-30T08:05:32.351Z,73.31
2022-08-30T08:08:57.405Z,73.29
2022-08-30T08:11:33.293Z,73.73
2022-08-30T08:14:03.191Z,74.26
2022-08-30T08:22:58.970Z,74.57
2022-08-30T08:25:28.280Z,75.11
2022-08-30T08:28:26.538Z,74.45
2022-08-30T08:30:57.697Z,74.39
2022-08-30T08:33:25.783Z,73.74
2022-08-30T08:35:57.837Z,74.22
2022-08-30T08:38:26.358Z,74.20
2022-08-30T08:41:07.668Z,73.92
2022-08-30T08:43:58.264Z,72.78
2022-08-30T08:46:55.437Z,73.43
2022-08-30T08:49:25.902Z,73.12
2022-08-30T08:52:24.649Z,73.30
2022-08-30T08:55:27.477Z,72.44
2022-08-30T08:57:56.043Z,73.04
2022-08-30T09:00:27.575Z,72.59
2022-08-30T09:03:05.265Z,72.72
2022-08-30T09:06:25.694Z,73.00
2022-08-30T09:08:58.014Z,73.40
2022-08-30T09:11:56.673Z,73.04
2022-08-30T09:14:57.001Z,73.22
2022-08-30T09:17:27.421Z,73.47
2022-08-30T09:19:55.790Z,73.97
2022-08-30T09:22:53.934Z,73.40
2022-08-30T09:28:28.813Z,74.87
2022-08-30T09:31:12.423Z,75.81
2022-08-30T09:34:10.081Z,75.76
2022-08-30T09:36:57.031Z,75.77
2022-08-30T09:39:34.439Z,76.39
2022-08-30T09:42:54.667Z,76.20
2022-08-30T09:45:57.039Z,76.62
2022-08-30T09:48:30.765Z,76.10
2022-08-30T09:51:58.061Z,75.66
2022-08-30T09:54:20.001Z,75.02
2022-08-30T09:57:33.933Z,74.87
2022-08-30T10:03:56.439Z,74.73
2022-08-30T10:06:55.777Z,74.96
2022-08-30T10:10:02.191Z,75.18
2022-08-30T10:12:59.370Z,75.33
2022-08-30T10:15:55.868Z,75.47
2022-08-30T10:19:02.561Z,75.35
2022-08-30T10:22:00.248Z,74.73
2022-08-30T10:25:08.252Z,74.87
2022-08-30T10:27:56.286Z,75.23
2022-08-30T10:30:29.394Z,74.97
2022-08-30T10:33:28.678Z,74.00
2022-08-30T10:36:04.273Z,74.18
2022-08-30T10:38:59.871Z,73.50
2022-08-30T10:42:29.821Z,72.98
2022-08-30T10:51:04.801Z,72.74
2022-08-30T10:53:58.993Z,72.81
2022-08-30T10:56:30.525Z,72.71
2022-08-30T10:59:01.497Z,72.60
2022-08-30T11:01:57.928Z,72.70
2022-08-30T11:05:03.250Z,72.64
2022-08-30T11:07:38.601Z,73.07
2022-08-30T11:10:28.625Z,72.61
2022-08-30T11:13:30.646Z,72.41
2022-08-30T11:16:05.675Z,72.89
2022-08-30T11:18:45.183Z,72.94
2022-08-30T11:21:56.270Z,72.59
2022-08-30T11:24:30.408Z,73.13
2022-08-30T11:29:47.975Z,72.95
2022-08-30T11:32:59.131Z,72.17
2022-08-30T11:36:01.406Z,72.24
2022-08-30T11:38:31.383Z,72.49
2022-08-30T11:40:59.900Z,72.40
2022-08-30T11:43:59.830Z,71.75
2022-08-30T11:46:28.334Z,72.44
2022-08-30T11:49:00.763Z,72.05
2022-08-30T11:56:28.186Z,72.09
2022-08-30T11:59:27.014Z,71.83
2022-08-30T12:02:28.615Z,71.59
2022-08-30T12:05:31.610Z,71.39
2022-08-30T12:12:27.336Z,70.70
2022-08-30T12:15:29.508Z,70.27
2022-08-30T12:18:18.893Z,70.25
2022-08-30T12:20:53.928Z,69.59
2022-08-30T12:23:25.173Z,69.59
2022-08-30T12:26:13.682Z,69.94
2022-08-30T12:28:44.620Z,69.94
2022-08-30T12:31:17.399Z,70.12
2022-08-30T12:33:54.652Z,70.50
2022-08-30T12:36:54.317Z,70.15
2022-08-30T12:39:34.101Z,70.69
2022-08-30T12:42:20.092Z,70.70
2022-08-30T12:44:59.697Z,70.85
2022-08-30T12:47:53.662Z,71.00
2022-08-30T12:51:00.141Z,70.61
2022-08-30T12:53:41.726Z,70.84
2022-08-30T12:56:21.225Z,70.84
2022-08-30T12:58:59.734Z,70.77
2022-08-30T13:01:33.353Z,70.74
2022-08-30T13:04:19.687Z,70.41
2022-08-30T13:07:02.635Z,70.45
2022-08-30T13:09:35.578Z,70.29
2022-08-30T13:12:11.241Z,70.32
2022-08-30T13:14:43.525Z,70.43
2022-08-30T13:17:32.117Z,70.46
2022-08-30T13:20:22.711Z,70.67
2022-08-30T13:23:11.740Z,70.77
2022-08-30T13:25:43.145Z,70.85
2022-08-30T13:28:15.043Z,70.60
2022-08-30T13:30:43.444Z,71.20
2022-08-30T13:33:12.826Z,71.29
2022-08-30T13:35:44.267Z,71.63
2022-08-30T13:38:12.579Z,72.03
2022-08-30T13:40:42.489Z,71.91
2022-08-30T13:43:11.419Z,71.82
2022-08-30T13:45:41.444Z,72.36
2022-08-30T13:48:14.676Z,73.02
2022-08-30T13:50:46.364Z,73.48
2022-08-30T13:53:51.790Z,73.37
2022-08-30T13:56:05.015Z,72.92
2022-08-30T13:58:33.954Z,73.30
2022-08-30T14:02:07.063Z,74.15
2022-08-30T14:04:29.960Z,74.68
2022-08-30T14:07:16.767Z,74.53
2022-08-30T14:10:30.335Z,75.64
2022-08-30T14:13:02.602Z,76.00
2022-08-30T14:15:36.160Z,75.69
2022-08-30T14:18:08.658Z,75.63
2022-08-30T14:20:38.397Z,75.33
2022-08-30T14:23:10.174Z,75.78
2022-08-30T14:25:42.441Z,76.23
2022-08-30T14:28:14.769Z,76.48
2022-08-30T14:30:45.038Z,76.25
2022-08-30T14:33:14.455Z,76.04
2022-08-30T14:35:43.257Z,76.13
2022-08-30T14:42:04.213Z,76.27
2022-08-30T14:44:54.775Z,75.94
2022-08-30T14:53:09.960Z,75.87
2022-08-30T14:55:38.358Z,76.22
2022-08-30T14:58:08.008Z,75.43
2022-08-30T15:00:36.854Z,75.73
2022-08-30T15:03:05.712Z,75.48
2022-08-30T15:05:34.397Z,75.04
2022-08-30T15:08:02.601Z,74.56
2022-08-30T15:10:31.620Z,74.55
2022-08-30T15:13:00.624Z,74.41
2022-08-30T15:15:34.106Z,74.29
2022-08-30T15:18:03.263Z,74.25
2022-08-30T15:20:32.298Z,74.37
2022-08-30T15:23:26.300Z,74.48
2022-08-30T15:25:57.527Z,75.03
2022-08-30T15:28:25.364Z,75.48
2022-08-30T15:30:54.228Z,74.98
2022-08-30T15:33:58.621Z,74.11
2022-08-30T15:36:28.992Z,73.84
2022-08-30T15:38:58.136Z,73.60
2022-08-30T15:41:26.834Z,72.62
2022-08-30T15:43:58.325Z,73.17
2022-08-30T15:46:33.055Z,72.20
2022-08-30T15:49:23.069Z,71.75
2022-08-30T15:51:54.202Z,71.27
2022-08-30T15:54:24.830Z,71.30
2022-08-30T15:56:59.966Z,70.86
2022-08-30T15:59:30.336Z,70.47
2022-08-30T16:01:58.909Z,69.80
2022-08-30T16:04:27.747Z,69.47
2022-08-30T16:06:56.324Z,68.92
2022-08-30T16:09:25.591Z,68.02
2022-08-30T16:11:58.644Z,67.77
2022-08-30T16:14:32.973Z,67.09
2022-08-30T16:17:01.448Z,67.24
2022-08-30T16:19:29.812Z,66.56
2022-08-30T16:21:58.784Z,66.58
2022-08-30T16:24:27.139Z,66.35
2022-08-30T16:26:56.066Z,66.33
2022-08-30T16:29:24.555Z,65.74
2022-08-30T16:31:54.399Z,64.88
2022-08-30T16:34:25.923Z,64.68
2022-08-30T16:36:54.757Z,63.46
2022-08-30T16:39:23.819Z,63.00
2022-08-30T16:48:09.272Z,62.60
2022-08-30T16:51:11.082Z,60.69
2022-08-30T16:53:59.760Z,61.78
2022-08-30T16:56:30.286Z,61.34
2022-08-30T16:59:02.822Z,61.23
2022-08-30T17:01:35.775Z,61.52
2022-08-30T17:04:06.099Z,61.21
2022-08-30T17:06:38.679Z,61.81
2022-08-30T17:09:25.753Z,62.14
2022-08-30T17:11:58.626Z,60.80
2022-08-30T17:14:30.250Z,61.46
2022-08-30T17:17:00.851Z,62.01
2022-08-30T17:19:30.520Z,62.19
2022-08-30T17:21:59.234Z,62.13
2022-08-30T17:24:28.480Z,62.18
2022-08-30T17:26:58.302Z,61.49
2022-08-30T17:29:27.214Z,61.58
2022-08-30T17:31:56.118Z,61.80
2022-08-30T17:34:29.334Z,60.86
2022-08-30T17:36:59.888Z,60.26
2022-08-30T17:39:29.655Z,59.70
2022-08-30T17:41:58.737Z,59.02
2022-08-30T17:44:31.629Z,59.33
2022-08-30T17:47:01.037Z,58.75
2022-08-30T17:49:31.207Z,58.82
2022-08-30T17:52:28.489Z,56.94
2022-08-30T17:54:57.023Z,56.70
2022-08-30T17:57:26.084Z,56.13
2022-08-30T17:59:54.518Z,56.26
2022-08-30T18:02:23.049Z,57.03
2022-08-30T18:04:59.254Z,57.64
2022-08-30T18:07:28.053Z,57.09
2022-08-30T18:16:27.039Z,56.63
2022-08-30T18:21:40.477Z,57.62
2022-08-30T18:24:10.679Z,57.44
2022-08-30T18:28:01.520Z,58.44
2022-08-30T18:30:39.937Z,57.79
2022-08-30T18:33:29.314Z,57.15
2022-08-30T18:36:32.516Z,57.68
2022-08-30T18:39:04.370Z,57.89
2022-08-30T18:41:32.696Z,57.28
2022-08-30T18:44:17.410Z,57.19
2022-08-30T18:47:27.153Z,56.51
2022-08-30T18:50:10.887Z,56.09
2022-08-30T18:53:00.453Z,56.00
2022-08-30T18:55:32.548Z,56.06
2022-08-30T19:01:29.177Z,54.81
2022-08-30T19:10:08.266Z,53.84
2022-08-30T19:12:43.565Z,54.00
2022-08-30T19:15:13.252Z,53.57
2022-08-30T19:17:44.825Z,53.51
2022-08-30T19:20:39.440Z,53.63
2022-08-30T19:23:10.446Z,53.64
2022-08-30T19:25:41.589Z,51.79
2022-08-30T19:28:18.586Z,52.83
2022-08-30T19:32:00.440Z,52.81
2022-08-30T19:34:30.854Z,53.06
2022-08-30T19:37:02.328Z,52.59
2022-08-30T19:42:01.874Z,52.07
2022-08-30T19:44:33.369Z,51.88
2022-08-30T19:47:02.773Z,52.01
2022-08-30T19:49:30.997Z,52.21
2022-08-30T19:52:00.063Z,51.99
2022-08-30T19:54:29.078Z,51.56
2022-08-30T19:56:58.596Z,51.47
2022-08-30T19:59:31.722Z,51.12
2022-08-30T20:02:00.240Z,51.28
2022-08-30T20:04:34.398Z,50.61
2022-08-30T20:07:02.635Z,50.84
2022-08-30T20:09:31.233Z,50.46
2022-08-30T20:12:02.639Z,50.75
2022-08-30T20:14:33.614Z,51.09
2022-08-30T20:17:02.277Z,50.54
2022-08-30T20:19:34.536Z,50.70
2022-08-30T20:22:07.902Z,51.14
2022-08-30T20:24:37.853Z,51.22
2022-08-30T20:27:08.199Z,50.21
2022-08-30T20:29:38.686Z,50.99
2022-08-30T20:32:07.051Z,51.09
2022-08-30T20:34:35.406Z,51.37
2022-08-30T20:37:03.683Z,50.78
2022-08-30T20:39:31.910Z,51.40
2022-08-30T20:42:33.420Z,51.10
2022-08-30T20:45:02.270Z,50.78
2022-08-30T20:47:30.910Z,51.24
2022-08-30T20:50:32.778Z,50.62
2022-08-30T20:53:06.208Z,51.40
2022-08-30T20:55:34.566Z,50.95
2022-08-30T20:58:02.768Z,51.15
2022-08-30T21:00:31.404Z,50.64
2022-08-30T21:03:00.309Z,49.84
2022-08-30T21:05:31.770Z,49.46
2022-08-30T21:08:00.830Z,50.10
2022-08-30T21:10:38.398Z,49.10
2022-08-30T21:13:06.628Z,49.10
2022-08-30T21:15:37.737Z,47.97
2022-08-30T21:18:06.784Z,48.50
2022-08-30T21:20:35.198Z,48.22
2022-08-30T21:23:03.601Z,48.08
2022-08-30T21:25:40.403Z,48.36
2022-08-30T21:28:33.018Z,48.14
2022-08-30T21:31:06.740Z,47.60
2022-08-30T21:33:35.036Z,47.30
2022-08-30T21:36:22.805Z,46.80
2022-08-30T21:39:00.612Z,47.74
2022-08-30T21:41:38.169Z,48.29
2022-08-30T21:44:10.951Z,48.64
2022-08-30T21:46:42.151Z,48.55
2022-08-30T21:49:13.021Z,48.30
2022-08-30T21:51:44.564Z,48.43
2022-08-30T21:54:32.390Z,47.68
2022-08-30T21:57:20.589Z,47.86
2022-08-30T22:00:01.427Z,48.12
2022-08-30T22:02:33.453Z,49.79
2022-08-30T22:05:02.078Z,49.26
2022-08-30T22:07:33.904Z,49.07
2022-08-30T22:10:06.698Z,48.97
2022-08-30T22:12:35.450Z,49.31
2022-08-30T22:15:14.697Z,50.27
2022-08-30T22:17:42.985Z,49.53
2022-08-30T22:20:15.117Z,49.82
2022-08-30T22:22:56.033Z,49.43
2022-08-30T22:25:25.758Z,50.33
2022-08-30T22:27:55.134Z,50.17
2022-08-30T22:30:23.468Z,50.33
2022-08-30T22:32:55.391Z,50.49
2022-08-30T22:35:26.701Z,50.01
2022-08-30T22:39:10.521Z,50.09
2022-08-30T23:20:51.340Z,54.35
2022-08-30T23:27:12.319Z,54.98
2022-08-30T23:34:14.402Z,54.41
2022-08-30T23:37:52.152Z,55.08
2022-08-30T23:41:13.656Z,54.13
